createdAt,value
2019-05-09T00:02:33.675Z,82.70
2019-05-09T00:05:03.677Z,82.70
2019-05-09T00:07:33.750Z,82.50
2019-05-09T00:10:04.139Z,82.20
2019-05-09T00:12:33.727Z,80.90
2019-05-09T00:15:04.525Z,81.30
2019-05-09T00:17:34.713Z,81.20
2019-05-09T00:20:13.521Z,81.20
2019-05-09T00:22:43.562Z,81.40
2019-05-09T00:25:13.638Z,84.40
2019-05-09T00:27:43.824Z,83.70
2019-05-09T00:30:14.021Z,84.60
2019-05-09T00:32:44.628Z,83.40
2019-05-09T00:35:33.941Z,84.50
2019-05-09T00:38:06.502Z,84.90
2019-05-09T00:40:36.150Z,82.90
2019-05-09T00:43:05.489Z,82.60
2019-05-09T00:46:06.333Z,84.30
2019-05-09T00:48:43.842Z,87.40
2019-05-09T00:51:14.116Z,83.70
2019-05-09T00:53:44.416Z,84.00
2019-05-09T00:56:13.902Z,84.40
2019-05-09T00:58:44.074Z,85.70
2019-05-09T01:01:14.843Z,85.00
2019-05-09T01:03:44.186Z,83.90
2019-05-09T01:06:13.619Z,83.50
2019-05-09T01:08:44.203Z,82.80
2019-05-09T01:11:15.578Z,83.00
2019-05-09T01:13:45.042Z,84.10
2019-05-09T01:16:14.356Z,83.20
2019-05-09T01:18:44.482Z,82.40
2019-05-09T01:21:14.147Z,83.60
2019-05-09T01:23:43.744Z,82.80
2019-05-09T01:26:13.364Z,83.00
2019-05-09T01:28:44.220Z,83.30
2019-05-09T01:31:14.300Z,83.30
2019-05-09T01:33:53.435Z,83.40
2019-05-09T01:36:47.676Z,83.80
2019-05-09T01:39:18.223Z,86.20
2019-05-09T01:41:47.807Z,85.30
2019-05-09T01:44:17.782Z,84.60
2019-05-09T01:46:47.880Z,85.00
2019-05-09T01:49:17.459Z,88.20
2019-05-09T01:51:47.083Z,88.10
2019-05-09T01:54:23.709Z,87.60
2019-05-09T01:56:55.042Z,88.40
2019-05-09T01:59:24.838Z,88.60
2019-05-09T02:01:54.517Z,87.00
2019-05-09T02:04:24.361Z,88.20
2019-05-09T02:06:54.583Z,87.30
2019-05-09T02:09:24.386Z,85.00
2019-05-09T02:11:54.671Z,85.50
2019-05-09T02:14:34.420Z,84.20
2019-05-09T02:17:25.646Z,82.80
2019-05-09T02:19:55.705Z,84.00
2019-05-09T02:22:34.486Z,85.90
2019-05-09T02:25:06.250Z,86.70
2019-05-09T02:27:36.708Z,85.60
2019-05-09T02:30:08.320Z,87.10
2019-05-09T02:32:38.050Z,85.70
2019-05-09T02:35:14.702Z,84.30
2019-05-09T02:37:44.975Z,85.40
2019-05-09T02:40:18.502Z,84.60
2019-05-09T02:42:48.974Z,85.20
2019-05-09T02:45:19.437Z,88.60
2019-05-09T02:47:53.634Z,85.60
2019-05-09T02:50:23.276Z,85.30
2019-05-09T02:52:52.840Z,84.70
2019-05-09T02:55:22.343Z,86.00
2019-05-09T02:57:54.133Z,84.90
2019-05-09T03:00:34.062Z,87.70
2019-05-09T03:03:14.944Z,88.50
2019-05-09T03:05:45.162Z,88.70
2019-05-09T03:08:14.939Z,87.30
2019-05-09T03:10:49.130Z,87.20
2019-05-09T03:13:19.646Z,86.30
2019-05-09T03:15:51.644Z,84.70
2019-05-09T03:18:28.491Z,87.00
2019-05-09T03:21:25.271Z,86.20
2019-05-09T03:23:54.962Z,86.10
2019-05-09T03:26:29.341Z,87.00
2019-05-09T03:29:29.213Z,88.00
2019-05-09T03:32:00.299Z,85.80
2019-05-09T03:34:30.367Z,91.10
2019-05-09T03:37:00.357Z,88.30
2019-05-09T03:39:31.507Z,86.40
2019-05-09T03:42:01.268Z,86.10
2019-05-09T03:44:31.265Z,86.30
2019-05-09T03:47:17.216Z,85.30
2019-05-09T03:50:05.426Z,85.30
2019-05-09T03:56:14.781Z,88.50
2019-05-09T03:58:47.417Z,89.40
2019-05-09T04:01:19.828Z,88.70
2019-05-09T04:03:50.004Z,87.10
2019-05-09T04:06:20.508Z,85.70
2019-05-09T04:08:53.711Z,85.80
2019-05-09T04:11:22.416Z,85.70
2019-05-09T04:13:59.765Z,87.00
2019-05-09T04:16:30.238Z,86.30
2019-05-09T04:19:00.973Z,87.70
2019-05-09T04:21:31.691Z,86.60
2019-05-09T04:24:02.081Z,85.80
2019-05-09T04:26:57.435Z,86.90
2019-05-09T04:29:28.579Z,85.40
2019-05-09T04:31:59.015Z,85.40
2019-05-09T04:34:29.462Z,86.10
2019-05-09T04:39:40.241Z,86.20
2019-05-09T04:42:09.771Z,86.30
2019-05-09T04:44:49.676Z,87.00
2019-05-09T04:47:17.696Z,86.10
2019-05-09T04:49:48.073Z,86.30
2019-05-09T04:52:18.756Z,86.30
2019-05-09T04:54:48.853Z,87.10
2019-05-09T04:57:18.912Z,86.40
2019-05-09T04:59:48.520Z,89.50
2019-05-09T05:02:42.456Z,87.30
2019-05-09T05:05:12.312Z,86.50
2019-05-09T05:07:43.286Z,89.10
2019-05-09T05:10:14.742Z,87.60
2019-05-09T05:12:44.787Z,90.00
2019-05-09T05:15:14.669Z,86.80
2019-05-09T05:17:44.638Z,86.60
2019-05-09T05:20:18.925Z,86.80
2019-05-09T05:22:59.916Z,88.20
2019-05-09T05:25:31.311Z,86.90
2019-05-09T05:28:08.480Z,87.80
2019-05-09T05:30:38.191Z,89.40
2019-05-09T05:33:29.009Z,87.00
2019-05-09T05:36:01.253Z,88.20
2019-05-09T05:38:30.910Z,89.10
2019-05-09T05:41:01.228Z,90.00
2019-05-09T05:43:41.566Z,87.70
2019-05-09T05:46:40.740Z,87.90
2019-05-09T05:49:10.777Z,89.30
2019-05-09T05:51:49.330Z,88.50
2019-05-09T05:54:20.588Z,88.20
2019-05-09T05:56:51.157Z,89.30
2019-05-09T05:59:21.076Z,89.50
2019-05-09T06:01:50.665Z,88.80
2019-05-09T06:04:20.946Z,88.60
2019-05-09T06:06:50.552Z,87.40
2019-05-09T06:09:20.349Z,87.30
2019-05-09T06:11:50.455Z,88.30
2019-05-09T06:14:21.447Z,86.70
2019-05-09T06:16:55.453Z,88.20
2019-05-09T06:19:28.405Z,87.80
2019-05-09T06:21:57.956Z,88.20
2019-05-09T06:24:28.438Z,87.50
2019-05-09T06:26:58.992Z,90.40
2019-05-09T06:29:29.129Z,88.00
2019-05-09T06:31:58.734Z,87.90
2019-05-09T06:34:29.507Z,87.10
2019-05-09T06:37:03.138Z,87.50
2019-05-09T06:39:32.207Z,87.50
2019-05-09T06:42:01.931Z,88.10
2019-05-09T06:44:53.642Z,87.90
2019-05-09T06:47:30.931Z,86.60
2019-05-09T06:50:02.940Z,86.10
2019-05-09T06:52:37.440Z,85.70
2019-05-09T06:55:08.713Z,86.20
2019-05-09T06:57:42.673Z,85.50
2019-05-09T07:00:19.927Z,84.60
2019-05-09T07:03:00.563Z,85.50
2019-05-09T07:05:38.722Z,84.20
2019-05-09T07:08:18.961Z,83.60
2019-05-09T07:10:49.212Z,84.00
2019-05-09T07:13:19.848Z,84.30
2019-05-09T07:15:50.379Z,82.20
2019-05-09T07:18:20.333Z,84.30
2019-05-09T07:20:49.972Z,82.80
2019-05-09T07:23:19.819Z,81.50
2019-05-09T07:26:08.449Z,80.10
2019-05-09T07:31:57.332Z,79.50
2019-05-09T07:34:33.102Z,79.70
2019-05-09T07:37:05.009Z,79.70
2019-05-09T07:39:35.034Z,80.50
2019-05-09T07:42:07.528Z,78.50
2019-05-09T07:44:46.240Z,77.50
2019-05-09T07:47:08.577Z,76.80
2019-05-09T07:49:39.078Z,75.60
2019-05-09T07:52:10.237Z,75.80
2019-05-09T07:54:40.899Z,75.10
2019-05-09T07:57:11.149Z,75.50
2019-05-09T07:59:41.048Z,76.60
2019-05-09T08:02:17.629Z,73.80
2019-05-09T08:04:48.955Z,74.00
2019-05-09T08:07:21.133Z,73.50
2019-05-09T08:09:51.252Z,74.10
2019-05-09T08:12:21.551Z,72.80
2019-05-09T08:15:07.542Z,73.80
2019-05-09T08:17:22.886Z,74.50
2019-05-09T08:19:52.963Z,73.00
2019-05-09T08:22:25.943Z,72.30
2019-05-09T08:24:57.485Z,72.30
2019-05-09T08:27:30.079Z,72.40
2019-05-09T08:29:58.824Z,72.10
2019-05-09T08:32:29.150Z,71.80
2019-05-09T08:34:58.924Z,71.70
2019-05-09T08:37:29.663Z,71.20
2019-05-09T08:39:59.947Z,71.20
2019-05-09T08:42:30.178Z,70.60
2019-05-09T08:45:00.622Z,71.10
2019-05-09T08:47:30.712Z,71.00
2019-05-09T08:50:11.995Z,70.90
2019-05-09T08:52:42.275Z,70.00
2019-05-09T08:55:12.361Z,69.90
2019-05-09T08:57:42.830Z,70.90
2019-05-09T09:00:13.367Z,70.40
2019-05-09T09:02:44.519Z,70.20
2019-05-09T09:05:14.545Z,68.70
2019-05-09T09:07:44.452Z,69.20
2019-05-09T09:10:15.186Z,68.00
2019-05-09T09:12:47.536Z,68.20
2019-05-09T09:15:18.126Z,66.60
2019-05-09T09:17:49.257Z,67.40
2019-05-09T09:20:19.387Z,68.30
2019-05-09T09:22:49.377Z,67.70
2019-05-09T09:25:19.355Z,67.60
2019-05-09T09:27:52.958Z,67.60
2019-05-09T09:30:25.196Z,68.10
2019-05-09T09:32:55.280Z,66.50
2019-05-09T09:35:27.624Z,66.30
2019-05-09T09:37:58.041Z,65.80
2019-05-09T09:40:28.330Z,65.70
2019-05-09T09:42:58.494Z,66.30
2019-05-09T09:45:30.836Z,65.40
2019-05-09T09:48:00.766Z,66.80
2019-05-09T09:50:30.440Z,65.60
2019-05-09T09:53:00.170Z,63.70
2019-05-09T09:55:32.671Z,63.10
2019-05-09T09:58:04.587Z,63.20
2019-05-09T10:00:58.229Z,59.90
2019-05-09T10:03:26.987Z,64.10
2019-05-09T10:05:57.870Z,61.90
2019-05-09T10:08:28.145Z,61.70
2019-05-09T10:10:59.096Z,62.00
2019-05-09T10:13:29.655Z,61.60
2019-05-09T10:16:26.511Z,60.80
2019-05-09T10:18:53.618Z,60.60
2019-05-09T10:21:27.761Z,61.90
2019-05-09T10:23:57.877Z,61.90
2019-05-09T10:26:45.106Z,61.60
2019-05-09T10:29:27.877Z,60.80
2019-05-09T10:31:57.841Z,61.00
2019-05-09T10:34:28.920Z,60.50
2019-05-09T10:36:58.523Z,60.20
2019-05-09T10:39:28.621Z,61.10
2019-05-09T10:41:59.965Z,59.90
2019-05-09T10:44:37.893Z,59.20
2019-05-09T10:47:21.234Z,59.20
2019-05-09T10:49:51.914Z,59.80
2019-05-09T10:52:22.404Z,60.70
2019-05-09T10:54:52.311Z,60.60
2019-05-09T10:57:22.436Z,59.10
2019-05-09T10:59:52.512Z,60.70
2019-05-09T11:02:22.400Z,60.30
2019-05-09T11:04:52.490Z,59.60
2019-05-09T11:07:22.172Z,59.20
2019-05-09T11:09:52.185Z,58.80
2019-05-09T11:12:22.975Z,57.80
2019-05-09T11:14:53.121Z,57.90
2019-05-09T11:17:23.698Z,57.50
2019-05-09T11:19:54.447Z,58.80
2019-05-09T11:22:24.192Z,58.30
2019-05-09T11:24:54.658Z,59.00
2019-05-09T11:27:24.714Z,55.90
2019-05-09T11:29:54.890Z,57.40
2019-05-09T11:32:24.859Z,56.70
2019-05-09T11:34:57.379Z,57.40
2019-05-09T11:37:27.197Z,56.60
2019-05-09T11:39:57.987Z,55.70
2019-05-09T11:42:29.021Z,55.00
2019-05-09T11:44:59.842Z,54.00
2019-05-09T11:47:38.240Z,56.20
2019-05-09T11:50:02.553Z,56.10
2019-05-09T11:52:34.077Z,56.00
2019-05-09T11:55:03.687Z,56.00
2019-05-09T11:57:34.114Z,55.70
2019-05-09T12:00:08.322Z,55.10
2019-05-09T12:02:38.545Z,54.50
2019-05-09T12:05:09.083Z,56.10
2019-05-09T12:07:39.159Z,55.30
2019-05-09T12:10:10.468Z,55.30
2019-05-09T12:12:40.144Z,54.90
2019-05-09T12:15:10.506Z,54.80
2019-05-09T12:17:55.996Z,55.40
2019-05-09T12:20:13.621Z,54.90
2019-05-09T12:22:43.876Z,53.80
2019-05-09T12:25:13.809Z,53.80
2019-05-09T12:27:44.191Z,53.60
2019-05-09T12:30:14.448Z,55.20
2019-05-09T12:32:44.488Z,51.40
2019-05-09T12:35:14.813Z,54.40
2019-05-09T12:37:45.232Z,52.70
2019-05-09T12:40:19.749Z,53.00
2019-05-09T12:42:49.608Z,51.80
2019-05-09T12:45:19.115Z,53.30
2019-05-09T12:47:48.675Z,52.20
2019-05-09T12:50:19.149Z,52.30
2019-05-09T12:52:49.017Z,53.90
2019-05-09T12:55:18.984Z,52.30
2019-05-09T12:57:53.096Z,52.90
2019-05-09T13:00:23.171Z,53.00
2019-05-09T13:02:53.168Z,52.10
2019-05-09T13:05:23.207Z,51.40
2019-05-09T13:07:53.224Z,51.60
2019-05-09T13:10:24.591Z,51.80
2019-05-09T13:12:55.455Z,51.60
2019-05-09T13:15:32.376Z,52.30
2019-05-09T13:18:02.434Z,51.30
2019-05-09T13:20:32.787Z,52.40
2019-05-09T13:23:03.469Z,51.60
2019-05-09T13:25:33.279Z,51.90
2019-05-09T13:28:08.267Z,51.20
2019-05-09T13:30:38.582Z,51.70
2019-05-09T13:33:10.987Z,52.70
2019-05-09T13:35:40.700Z,52.80
2019-05-09T13:38:10.539Z,52.10
2019-05-09T13:40:40.636Z,52.60
2019-05-09T13:43:11.101Z,53.40
2019-05-09T13:45:40.985Z,54.00
2019-05-09T13:48:26.436Z,54.00
2019-05-09T13:50:42.303Z,54.00
2019-05-09T13:53:12.108Z,53.70
2019-05-09T13:55:41.910Z,54.90
2019-05-09T13:58:11.944Z,55.00
2019-05-09T14:00:55.881Z,54.60
2019-05-09T14:03:14.315Z,55.20
2019-05-09T14:05:44.544Z,56.30
2019-05-09T14:08:18.012Z,56.20
2019-05-09T14:10:48.353Z,55.70
2019-05-09T14:13:19.152Z,56.50
2019-05-09T14:15:49.449Z,57.30
2019-05-09T14:18:19.885Z,57.40
2019-05-09T14:20:50.061Z,55.90
2019-05-09T14:23:20.299Z,57.10
2019-05-09T14:25:52.025Z,57.90
2019-05-09T14:28:22.176Z,58.80
2019-05-09T14:30:51.798Z,58.90
2019-05-09T14:33:25.023Z,59.20
2019-05-09T14:35:55.049Z,59.90
2019-05-09T14:38:24.994Z,60.10
2019-05-09T14:40:59.286Z,60.10
2019-05-09T14:43:28.878Z,60.00
2019-05-09T14:45:58.637Z,60.50
2019-05-09T14:48:29.060Z,60.80
2019-05-09T14:50:59.603Z,60.90
2019-05-09T14:53:29.350Z,61.10
2019-05-09T14:55:59.308Z,61.10
2019-05-09T14:58:29.299Z,61.50
2019-05-09T15:01:00.881Z,61.50
2019-05-09T15:03:31.305Z,61.50
2019-05-09T15:08:30.395Z,61.80
2019-05-09T15:11:00.855Z,61.70
2019-05-09T15:13:31.385Z,61.80
2019-05-09T15:16:01.350Z,62.00
2019-05-09T15:18:31.607Z,62.00
2019-05-09T15:21:01.964Z,62.40
2019-05-09T15:23:31.995Z,62.30
2019-05-09T15:26:02.521Z,62.20
2019-05-09T15:28:32.334Z,62.20
2019-05-09T15:31:02.323Z,62.10
2019-05-09T15:33:32.091Z,61.90
2019-05-09T15:36:01.984Z,61.80
2019-05-09T15:38:32.039Z,61.60
2019-05-09T15:41:02.549Z,61.30
2019-05-09T15:43:32.515Z,60.90
2019-05-09T15:46:14.705Z,61.70
2019-05-09T15:48:44.775Z,60.90
2019-05-09T15:51:15.021Z,61.10
2019-05-09T15:53:45.405Z,57.20
2019-05-09T15:56:18.583Z,60.80
2019-05-09T15:58:50.038Z,60.30
2019-05-09T16:01:19.714Z,57.70
2019-05-09T16:03:53.114Z,59.80
2019-05-09T16:06:23.916Z,59.10
2019-05-09T16:08:55.290Z,59.50
2019-05-09T16:11:28.662Z,59.50
2019-05-09T16:14:02.763Z,59.40
2019-05-09T16:16:31.599Z,58.80
2019-05-09T16:19:03.214Z,58.70
2019-05-09T16:21:33.495Z,58.50
2019-05-09T16:24:03.519Z,59.10
2019-05-09T16:26:34.336Z,59.00
2019-05-09T16:29:05.340Z,59.50
2019-05-09T16:31:38.418Z,59.80
2019-05-09T16:34:09.431Z,59.30
2019-05-09T16:36:40.495Z,60.10
2019-05-09T16:39:10.294Z,60.00
2019-05-09T16:41:40.085Z,59.70
2019-05-09T16:44:10.081Z,60.20
2019-05-09T16:46:41.556Z,59.90
2019-05-09T16:49:11.921Z,60.20
2019-05-09T16:51:48.134Z,60.20
2019-05-09T16:54:20.752Z,60.30
2019-05-09T16:56:51.298Z,59.50
2019-05-09T16:59:21.410Z,59.50
2019-05-09T17:02:16.804Z,60.00
2019-05-09T17:04:38.798Z,60.00
2019-05-09T17:07:10.220Z,60.30
2019-05-09T17:09:45.091Z,60.20
2019-05-09T17:12:15.777Z,60.50
2019-05-09T17:14:46.202Z,60.20
2019-05-09T17:17:17.958Z,59.90
2019-05-09T17:19:50.808Z,59.70
2019-05-09T17:22:40.320Z,57.50
2019-05-09T17:25:11.367Z,58.10
2019-05-09T17:27:42.564Z,59.80
2019-05-09T17:30:13.925Z,59.90
2019-05-09T17:32:47.365Z,59.70
2019-05-09T17:35:27.908Z,57.80
2019-05-09T17:37:58.952Z,58.40
2019-05-09T17:40:38.308Z,59.00
2019-05-09T17:43:08.480Z,58.80
2019-05-09T17:45:42.133Z,56.50
2019-05-09T17:48:18.252Z,58.00
2019-05-09T17:50:51.966Z,57.30
2019-05-09T17:53:24.338Z,57.70
2019-05-09T17:55:58.495Z,58.70
2019-05-09T17:58:33.397Z,58.70
2019-05-09T18:01:04.044Z,57.80
2019-05-09T18:03:35.201Z,58.30
2019-05-09T18:06:08.295Z,57.90
2019-05-09T18:08:39.329Z,57.80
2019-05-09T18:11:12.590Z,57.90
2019-05-09T18:13:41.282Z,57.70
2019-05-09T18:16:11.946Z,58.30
2019-05-09T18:18:42.614Z,58.30
2019-05-09T18:21:13.749Z,58.30
2019-05-09T18:23:44.028Z,58.60
2019-05-09T18:26:18.343Z,58.70
2019-05-09T18:28:47.995Z,59.00
2019-05-09T18:31:18.696Z,59.30
2019-05-09T18:33:53.688Z,59.60
2019-05-09T18:36:24.452Z,59.70
2019-05-09T18:38:54.615Z,59.70
2019-05-09T18:41:25.715Z,60.10
2019-05-09T18:43:57.498Z,60.30
2019-05-09T18:46:28.359Z,60.80
2019-05-09T18:48:59.685Z,60.90
2019-05-09T18:51:30.097Z,61.10
2019-05-09T18:54:00.358Z,61.00
2019-05-09T18:56:30.665Z,61.40
2019-05-09T18:59:01.337Z,61.40
2019-05-09T19:01:32.810Z,61.70
2019-05-09T19:04:03.825Z,62.30
2019-05-09T19:06:35.712Z,62.00
2019-05-09T19:09:07.563Z,62.30
2019-05-09T19:11:37.770Z,62.60
2019-05-09T19:14:10.567Z,62.90
2019-05-09T19:16:51.474Z,62.80
2019-05-09T19:19:39.879Z,63.30
2019-05-09T19:22:22.092Z,63.70
2019-05-09T19:24:43.131Z,63.80
2019-05-09T19:27:14.067Z,63.50
2019-05-09T19:29:44.043Z,64.50
2019-05-09T19:32:14.148Z,66.40
2019-05-09T19:34:44.124Z,64.60
2019-05-09T19:37:14.685Z,65.30
2019-05-09T19:39:45.867Z,65.50
2019-05-09T19:42:16.154Z,64.90
2019-05-09T19:44:47.691Z,64.90
2019-05-09T19:47:17.902Z,64.50
2019-05-09T19:49:48.684Z,65.40
2019-05-09T19:52:19.004Z,65.10
2019-05-09T19:54:49.487Z,64.90
2019-05-09T19:57:19.649Z,64.60
2019-05-09T19:59:49.848Z,64.90
2019-05-09T20:02:21.183Z,64.50
2019-05-09T20:04:53.321Z,64.80
2019-05-09T20:07:23.994Z,64.50
2019-05-09T20:10:01.996Z,64.90
2019-05-09T20:12:50.313Z,65.50
2019-05-09T20:15:20.531Z,69.70
2019-05-09T20:17:51.076Z,67.60
2019-05-09T20:20:22.966Z,66.90
2019-05-09T20:22:53.653Z,67.30
2019-05-09T20:25:23.802Z,66.70
2019-05-09T20:27:54.195Z,66.70
2019-05-09T20:30:24.562Z,67.20
2019-05-09T20:32:54.809Z,66.80
2019-05-09T20:35:27.016Z,67.00
2019-05-09T20:37:58.466Z,66.70
2019-05-09T20:40:31.524Z,66.90
2019-05-09T20:43:01.986Z,67.20
2019-05-09T20:45:32.925Z,67.50
2019-05-09T20:48:04.223Z,66.90
2019-05-09T20:50:35.137Z,68.00
2019-05-09T20:53:09.906Z,67.40
2019-05-09T20:55:40.185Z,68.40
2019-05-09T20:58:11.240Z,69.00
2019-05-09T21:00:45.696Z,72.60
2019-05-09T21:03:16.218Z,74.10
2019-05-09T21:05:47.342Z,72.10
2019-05-09T21:08:21.758Z,70.50
2019-05-09T21:10:52.262Z,69.80
2019-05-09T21:13:22.371Z,70.70
2019-05-09T21:19:59.814Z,70.90
2019-05-09T21:22:30.008Z,70.70
2019-05-09T21:25:00.223Z,70.60
2019-05-09T21:27:30.489Z,70.50
2019-05-09T21:30:01.699Z,70.40
2019-05-09T21:32:34.146Z,70.70
2019-05-09T21:35:04.355Z,70.90
2019-05-09T21:37:34.700Z,70.50
2019-05-09T21:40:05.585Z,70.70
2019-05-09T21:42:35.125Z,71.00
2019-05-09T21:45:04.972Z,71.00
2019-05-09T21:47:35.613Z,71.10
2019-05-09T21:50:05.613Z,71.50
2019-05-09T21:52:35.602Z,71.60
2019-05-09T21:55:06.364Z,71.60
2019-05-09T21:57:36.116Z,71.10
2019-05-09T22:00:09.232Z,71.60
2019-05-09T22:02:40.270Z,71.60
2019-05-09T22:05:10.152Z,72.30
2019-05-09T22:07:40.094Z,72.10
2019-05-09T22:10:10.894Z,71.90
2019-05-09T22:12:42.133Z,72.60
2019-05-09T22:15:14.928Z,72.70
2019-05-09T22:17:45.250Z,72.60
2019-05-09T22:20:16.567Z,73.60
2019-05-09T22:22:46.458Z,72.70
2019-05-09T22:25:16.871Z,73.10
2019-05-09T22:27:47.229Z,73.60
2019-05-09T22:30:17.894Z,72.70
2019-05-09T22:32:47.915Z,72.70
2019-05-09T22:35:19.420Z,72.30
2019-05-09T22:37:49.200Z,72.60
2019-05-09T22:40:19.314Z,73.00
2019-05-09T22:42:49.256Z,73.80
2019-05-09T22:45:19.615Z,74.20
2019-05-09T22:47:50.312Z,73.70
2019-05-09T22:50:21.381Z,73.10
2019-05-09T22:52:51.609Z,73.30
2019-05-09T22:55:21.284Z,73.10
2019-05-09T22:57:51.010Z,73.00
2019-05-09T23:00:21.361Z,73.00
2019-05-09T23:02:51.766Z,73.70
2019-05-09T23:05:22.960Z,73.40
2019-05-09T23:07:53.315Z,73.50
2019-05-09T23:10:23.320Z,73.50
2019-05-09T23:12:53.385Z,73.90
2019-05-09T23:15:22.952Z,73.70
2019-05-09T23:17:52.791Z,73.80
2019-05-09T23:20:40.528Z,73.50
2019-05-09T23:23:28.988Z,73.50
2019-05-09T23:25:59.697Z,73.60
2019-05-09T23:28:30.941Z,74.20
2019-05-09T23:31:02.685Z,74.00
2019-05-09T23:33:36.276Z,73.90
2019-05-09T23:36:06.347Z,73.90
2019-05-09T23:38:56.303Z,75.20
2019-05-09T23:41:26.712Z,74.60
2019-05-09T23:43:56.733Z,74.70
2019-05-09T23:46:27.183Z,74.40
2019-05-09T23:48:57.138Z,74.60
2019-05-09T23:51:45.140Z,74.30
2019-05-09T23:54:45.214Z,74.30
2019-05-09T23:57:22.980Z,75.40
